Startpagina
METAR-TAF:

METAR-TAF

Vliegvelden :

Teheran Mehrabad International Airport

Teheran, Iran

breedte: 35-41N, lengte: 051-21E, hoogte: 1204 m

Actueel weer

Dit bericht is 40 minuten geleden gemaakt, om 10:00 UTC
Wind 8 kt uit het zuidzuidoosten
Temperatuur 29°C
Vochtigheid 16%
Druk 1017 hPa
Zicht 10 km of meer
Weinig wolken op 4000 ft

METAR: OIII 231000Z 16008KT 9999 FEW040 29/01 Q1017 A3004

Tijdstip: 14:10 (10:40 UTC)

Verwachting

Dit bericht is 3 uur en het 50 minuten geleden gemaakt, om 06:50 UTC
Verwachting geldig van 23 om 06 UTC tot 24 om 12 UTC
Wind 6 kt uit het oosten
Zicht: 8000 m
Weinig wolken op 4000 ft
Verspreide wolken op 10000 ft
Tijdelijke
van 23 om 06 UTC tot 23 om 09 UTC
Weinig wolken op 3500 ft, Cumulonimbus.
Verspreide wolken op 4000 ft
Gebroken wolken op 9000 ft
Wijzigt naar
van 24 om 07 UTC tot 24 om 09 UTC
Wind 10 kt uit het noordwesten

TAF: OIII 230650Z 2306/2412 10003MPS 8000 FEW040 SCT100 TEMPO 2306/2309 FEW035CB SCT040 BKN090 BECMG 2407/2409 32005MPS

Waarnemingen en weersverwachtingen van meer dan 4000 vliegvelden (METAR en TAF).

De beschikbare stations zijn de gele en rode punten op de kaart.

Ga met uw muis naar het station om de naam te zien.

Klik dan om waarnemingen en weersverwachtingen te zien.

kaart wijzigen: klik op de groene knoppen met een zwart kruis om in te zoomen, op de groene knop met een streepje om uit te zoomen of op de groene pijlen voor aangrenzende kaarten.


METAR-TAF: